Time;durP1;ratioP1;P1;durP2;ratioP2;P2;SDS_P1;SDS_P2;PMS_P1;PMS_P2;Temp;Humidity;BMP_temperature;BMP_pressure;BME280_temperature;BME280_humidity;BME280_pressure;Samples;Min_cycle;Max_cycle;Signal;HPM_P1;HPM_P2
2021/04/27 00:01:32;;;;;;;5.55;3.42;;;;;;;6.79;63.92;99319.31;4985507;28;20074;-65
2021/04/27 00:03:58;;;;;;;7.10;3.85;;;;;;;6.71;65.11;99333.47;4986850;28;20061;-66
2021/04/27 00:06:24;;;;;;;7.63;3.70;;;;;;;6.57;65.17;99335.41;4986004;28;20564;-66
2021/04/27 00:08:51;;;;;;;6.82;3.75;;;;;;;6.64;65.09;99319.50;4985485;28;20050;-66
2021/04/27 00:11:16;;;;;;;7.32;3.88;;;;;;;6.93;65.07;99337.59;4967646;28;20573;-67
2021/04/27 00:13:42;;;;;;;9.27;3.67;;;;;;;6.71;65.54;99341.38;4987407;28;20141;-67
2021/04/27 00:16:09;;;;;;;6.13;3.72;;;;;;;6.49;67.19;99340.72;4969481;28;20498;-69
2021/04/27 00:18:35;;;;;;;6.43;3.75;;;;;;;6.80;66.31;99331.59;4986263;28;20046;-68
2021/04/27 00:21:01;;;;;;;6.32;4.25;;;;;;;6.40;67.90;99309.25;4985266;28;20050;-68
2021/04/27 00:23:27;;;;;;;6.63;3.72;;;;;;;6.26;68.79;99319.06;4984782;28;20069;-68
2021/04/27 00:25:53;;;;;;;5.57;3.72;;;;;;;6.38;68.14;99305.78;4987322;28;20503;-68
2021/04/27 00:28:19;;;;;;;6.18;3.40;;;;;;;6.59;67.13;99325.72;4985157;28;20038;-68
2021/04/27 00:30:45;;;;;;;7.50;4.30;;;;;;;6.70;67.87;99323.84;4986197;28;20070;-68
2021/04/27 00:33:11;;;;;;;4.93;3.70;;;;;;;6.67;66.62;99308.94;4985884;28;20478;-68
2021/04/27 00:35:37;;;;;;;8.60;4.03;;;;;;;6.73;67.22;99319.38;4984177;28;20141;-68
2021/04/27 00:38:03;;;;;;;6.85;4.10;;;;;;;6.93;67.09;99314.75;4984386;28;20046;-68
2021/04/27 00:40:31;;;;;;;8.70;4.07;;;;;;;6.99;66.65;99308.53;4985726;28;20379;-68
2021/04/27 00:42:58;;;;;;;5.90;3.80;;;;;;;6.64;67.53;99314.22;4986713;28;20054;-68
2021/04/27 00:45:28;;;;;;;5.63;4.13;;;;;;;6.82;66.19;99313.16;4984906;28;20070;-68
2021/04/27 00:47:55;;;;;;;6.07;4.25;;;;;;;6.99;66.12;99319.94;4985376;28;20524;-68
2021/04/27 00:50:30;;;;;;;10.18;4.20;;;;;;;6.86;65.42;99284.13;5000817;28;20175;-68
2021/04/27 00:52:57;;;;;;;8.25;4.05;;;;;;;7.06;65.64;99308.44;4983025;28;20100;-68
2021/04/27 00:55:24;;;;;;;7.65;4.07;;;;;;;7.08;66.18;99303.16;4985404;28;20058;-68
2021/04/27 00:57:52;;;;;;;8.48;3.92;;;;;;;7.26;65.21;99297.59;4986592;28;20406;-68
2021/04/27 01:00:27;;;;;;;5.63;4.20;;;;;;;7.12;65.48;99255.63;4984127;28;20042;-68
2021/04/27 01:02:53;;;;;;;7.55;3.97;;;;;;;7.29;65.17;99287.91;4985861;28;20112;-68
2021/04/27 01:05:25;;;;;;;9.52;4.07;;;;;;;7.20;64.97;99277.47;4984365;28;20191;-68
2021/04/27 01:08:17;;;;;;;7.80;4.25;;;;;;;7.23;65.63;99277.44;4982473;28;20196;-67
2021/04/27 01:10:45;;;;;;;7.95;4.30;;;;;;;7.40;64.38;99277.19;4986818;28;20046;-65
2021/04/27 01:13:22;;;;;;;6.22;4.18;;;;;;;7.49;64.11;99288.47;4984452;28;20133;-66
2021/04/27 01:15:50;;;;;;;7.70;4.82;;;;;;;7.42;64.07;99260.44;4985235;28;20049;-66
2021/04/27 01:18:18;;;;;;;6.18;4.65;;;;;;;7.52;64.02;99266.44;4985141;28;20042;-65
2021/04/27 01:20:48;;;;;;;11.38;4.95;;;;;;;7.36;64.63;99244.69;4983502;28;20038;-65
2021/04/27 01:23:21;;;;;;;9.80;4.82;;;;;;;7.50;63.96;99271.75;4985878;28;20050;-66
2021/04/27 01:26:09;;;;;;;10.25;4.60;;;;;;;7.47;63.96;99260.34;4985293;28;20057;-65
2021/04/27 01:28:51;;;;;;;8.95;4.85;;;;;;;7.47;64.09;99257.72;4985007;28;20047;-65
2021/04/27 01:31:17;;;;;;;7.13;4.60;;;;;;;7.64;63.80;99263.63;4984837;28;20046;-67
2021/04/27 01:33:44;;;;;;;9.82;4.90;;;;;;;7.66;64.12;99265.31;4985500;28;20054;-65
2021/04/27 01:36:12;;;;;;;7.95;4.43;;;;;;;7.54;63.21;99248.81;4983838;28;20050;-67
2021/04/27 01:38:52;;;;;;;6.20;4.32;;;;;;;7.54;63.11;99252.34;4984008;28;20046;-67
2021/04/27 01:41:19;;;;;;;10.18;4.72;;;;;;;7.51;64.08;99254.13;4986735;28;20038;-67
2021/04/27 01:43:46;;;;;;;6.72;5.03;;;;;;;7.54;64.43;99264.63;4984874;28;20046;-65
2021/04/27 01:46:13;;;;;;;6.93;4.28;;;;;;;7.58;64.18;99267.22;4986695;28;20125;-67
2021/04/27 01:48:40;;;;;;;7.30;4.38;;;;;;;7.56;63.93;99253.16;4986795;28;20042;-67
2021/04/27 01:51:10;;;;;;;8.48;4.50;;;;;;;7.41;64.42;99253.44;4985999;28;20141;-67
2021/04/27 01:53:55;;;;;;;7.88;4.30;;;;;;;7.51;64.24;99262.94;4984540;28;20180;-66
2021/04/27 01:56:26;;;;;;;11.45;4.75;;;;;;;7.41;64.18;99250.78;4986553;28;20054;-66
2021/04/27 01:58:53;;;;;;;8.07;4.35;;;;;;;7.44;63.81;99252.50;4986667;28;20050;-65
2021/04/27 02:01:25;;;;;;;7.47;4.28;;;;;;;7.52;64.04;99255.91;4985287;28;20082;-65
2021/04/27 02:03:51;;;;;;;9.73;4.40;;;;;;;7.52;64.01;99248.84;4988495;28;20375;-65
2021/04/27 02:06:43;;;;;;;6.97;4.82;;;;;;;7.29;64.66;99229.91;4984846;28;20057;-65
2021/04/27 02:09:12;;;;;;;14.95;4.95;;;;;;;7.35;65.28;99220.97;4988635;28;20054;-66
2021/04/27 02:11:41;;;;;;;6.28;4.75;;;;;;;7.39;65.21;99256.97;4988170;28;20573;-65
2021/04/27 02:14:09;;;;;;;8.90;4.80;;;;;;;7.34;64.75;99251.78;4986463;28;20145;-65
2021/04/27 02:17:03;;;;;;;9.48;4.68;;;;;;;7.30;65.93;99247.44;4972075;28;20046;-65
2021/04/27 02:19:33;;;;;;;10.35;4.70;;;;;;;7.17;66.34;99247.66;4986288;28;20046;-65
2021/04/27 02:22:26;;;;;;;6.97;4.45;;;;;;;7.24;65.44;99222.94;4986816;28;20042;-65
2021/04/27 02:25:16;;;;;;;7.38;4.40;;;;;;;7.36;64.98;99255.25;4967445;28;20077;-65
2021/04/27 02:27:43;;;;;;;6.25;4.60;;;;;;;7.22;65.09;99251.09;4967534;28;20062;-65
2021/04/27 02:30:14;;;;;;;8.82;4.55;;;;;;;7.09;65.87;99221.41;4965665;28;20404;-65
2021/04/27 02:32:43;;;;;;;6.47;4.85;;;;;;;7.17;65.70;99245.91;4967094;28;20047;-65
2021/04/27 02:35:13;;;;;;;7.70;4.68;;;;;;;7.14;66.03;99251.22;4967428;28;20051;-66
2021/04/27 02:37:44;;;;;;;5.93;4.00;;;;;;;7.07;65.56;99239.00;4963595;28;20047;-65
2021/04/27 02:40:23;;;;;;;8.65;4.50;;;;;;;6.95;66.03;99244.44;4951495;28;20463;-66
2021/04/27 02:42:56;;;;;;;6.43;4.50;;;;;;;6.82;66.26;99247.28;4967297;28;20047;-65
2021/04/27 02:45:32;;;;;;;7.97;5.38;;;;;;;6.72;66.77;99245.66;4966925;28;20140;-65
2021/04/27 02:48:19;;;;;;;7.15;4.45;;;;;;;6.90;66.06;99248.91;4966311;28;20050;-64
2021/04/27 02:50:50;;;;;;;7.47;5.00;;;;;;;6.42;67.39;99217.06;4966516;28;20035;-65
2021/04/27 02:53:17;;;;;;;10.20;4.97;;;;;;;6.82;67.25;99242.88;4966533;28;20042;-66
2021/04/27 02:55:45;;;;;;;8.70;4.50;;;;;;;6.76;67.11;99248.22;4966876;28;20507;-63
2021/04/27 02:58:12;;;;;;;6.68;4.60;;;;;;;6.49;67.67;99224.88;4966215;28;20070;-64
2021/04/27 03:00:41;;;;;;;6.63;4.18;;;;;;;6.49;67.49;99213.47;4967297;28;20538;-65
2021/04/27 03:03:09;;;;;;;6.68;5.10;;;;;;;6.32;68.28;99231.22;4985724;28;20510;-65
2021/04/27 03:05:36;;;;;;;9.52;5.05;;;;;;;6.43;68.43;99240.75;4986573;28;20456;-65
2021/04/27 03:08:03;;;;;;;8.02;4.90;;;;;;;6.53;68.28;99236.25;4987764;28;20038;-65
2021/04/27 03:10:30;;;;;;;10.57;5.13;;;;;;;6.55;68.21;99237.09;4987160;28;20046;-65
2021/04/27 03:12:56;;;;;;;10.95;7.10;;;;;;;6.47;68.41;99231.03;4985470;28;20057;-64
2021/04/27 03:15:23;;;;;;;12.18;8.40;;;;;;;6.21;68.96;99227.88;4987245;28;20039;-65
2021/04/27 03:17:50;;;;;;;12.88;7.95;;;;;;;6.36;69.11;99225.03;4988593;28;20077;-65
2021/04/27 03:20:17;;;;;;;11.55;8.13;;;;;;;5.99;68.81;99200.91;4971069;28;20351;-67
2021/04/27 03:22:54;;;;;;;9.57;7.63;;;;;;;6.15;70.16;99227.91;4985704;28;20042;-66
2021/04/27 03:25:20;;;;;;;12.45;7.20;;;;;;;6.07;69.91;99230.66;4971050;28;20065;-65
2021/04/27 03:27:51;;;;;;;12.02;6.72;;;;;;;5.81;70.59;99203.72;4985997;28;20054;-66
2021/04/27 03:30:48;;;;;;;7.05;5.28;;;;;;;6.02;71.08;99227.19;4974604;28;20054;-66
2021/04/27 03:33:16;;;;;;;7.57;5.45;;;;;;;5.80;69.94;99223.00;4953143;28;20138;-66
2021/04/27 03:35:47;;;;;;;11.32;5.45;;;;;;;5.73;72.88;99221.31;4986263;28;20502;-66
2021/04/27 03:38:13;;;;;;;7.95;5.25;;;;;;;5.57;71.38;99232.00;4985997;28;20046;-67
2021/04/27 03:40:40;;;;;;;7.97;5.85;;;;;;;5.59;72.15;99223.22;4985692;28;20061;-66
2021/04/27 03:43:08;;;;;;;8.18;5.30;;;;;;;5.58;73.73;99218.81;4987343;28;20057;-66
2021/04/27 03:45:40;;;;;;;8.38;5.68;;;;;;;5.37;72.85;99218.16;4986901;28;20046;-66
2021/04/27 03:48:13;;;;;;;10.70;6.30;;;;;;;5.32;74.93;99199.78;4986812;28;20044;-66
2021/04/27 03:50:46;;;;;;;7.30;5.78;;;;;;;5.14;74.05;99217.47;4985528;28;20506;-66
2021/04/27 03:53:35;;;;;;;8.85;6.32;;;;;;;5.20;76.38;99215.66;4982178;28;20399;-65
2021/04/27 03:56:03;;;;;;;7.13;5.93;;;;;;;5.22;75.18;99207.75;4986320;28;20046;-66
2021/04/27 03:58:31;;;;;;;9.02;5.97;;;;;;;5.17;76.19;99206.94;5002255;28;20897;-66
2021/04/27 04:00:58;;;;;;;9.05;5.57;;;;;;;4.98;74.58;99200.91;4984365;28;20050;-65
2021/04/27 04:03:24;;;;;;;10.52;7.45;;;;;;;4.93;79.46;99202.72;4984721;28;20502;-65
2021/04/27 04:05:52;;;;;;;7.90;6.07;;;;;;;4.76;76.79;99186.19;4987420;28;20050;-66
2021/04/27 04:08:41;;;;;;;11.18;5.97;;;;;;;4.50;75.99;99195.97;4983628;28;20050;-65
2021/04/27 04:11:10;;;;;;;12.27;6.75;;;;;;;4.37;77.66;99179.44;4986197;28;20054;-65
2021/04/27 04:13:36;;;;;;;9.98;7.22;;;;;;;4.40;78.71;99194.28;4987524;28;20056;-66
2021/04/27 04:16:02;;;;;;;8.90;6.72;;;;;;;4.00;78.30;99180.44;4985241;28;20596;-65
2021/04/27 04:18:28;;;;;;;10.85;7.57;;;;;;;3.76;78.79;99162.16;4985911;28;20927;-65
2021/04/27 04:20:54;;;;;;;14.05;8.57;;;;;;;4.16;79.58;99182.13;4986433;28;20137;-65
2021/04/27 04:23:35;;;;;;;12.00;8.88;;;;;;;4.02;78.79;99185.69;4983710;28;20046;-65
2021/04/27 04:26:01;;;;;;;13.25;9.68;;;;;;;4.20;79.97;99177.75;4985775;28;20485;-67
2021/04/27 04:28:29;;;;;;;15.30;9.10;;;;;;;4.15;79.98;99148.03;4985673;28;20434;-66
2021/04/27 04:30:57;;;;;;;20.65;11.82;;;;;;;4.03;78.12;99154.19;5001515;28;20046;-65
2021/04/27 04:33:42;;;;;;;15.93;11.15;;;;;;;3.96;79.53;99164.75;4987224;28;20096;-67
2021/04/27 04:36:33;;;;;;;22.23;12.80;;;;;;;3.87;79.46;99139.41;4944364;29;20606;-66
2021/04/27 04:39:18;;;;;;;16.33;11.18;;;;;;;4.04;80.00;99131.47;4945258;29;20055;-65
2021/04/27 04:42:02;;;;;;;18.67;10.60;;;;;;;3.88;80.97;99109.69;4945411;29;20055;-64
2021/04/27 04:44:47;;;;;;;18.23;10.13;;;;;;;4.03;79.01;99124.47;4931829;29;20126;-65
2021/04/27 04:47:48;;;;;;;16.33;11.55;;;;;;;3.95;81.03;99089.53;4926626;29;20081;-65
2021/04/27 04:50:32;;;;;;;19.83;12.50;;;;;;;4.14;81.22;99114.81;4926187;29;20521;-66
2021/04/27 04:53:17;;;;;;;19.25;13.40;;;;;;;4.26;82.54;99117.38;4925447;29;20086;-65
2021/04/27 04:55:47;;;;;;;16.63;11.57;;;;;;;4.06;81.74;99114.84;4909263;29;20064;-66
2021/04/27 04:58:18;;;;;;;15.73;10.75;;;;;;;4.12;81.21;99119.22;4926368;29;20057;-66
2021/04/27 05:00:52;;;;;;;15.43;8.68;;;;;;;4.13;79.74;99092.09;4909329;29;20087;-65
2021/04/27 05:03:33;;;;;;;11.38;8.40;;;;;;;3.86;78.42;99111.44;4909702;29;20464;-66
2021/04/27 05:06:17;;;;;;;14.07;8.77;;;;;;;3.80;79.37;99089.63;4923030;29;20143;-67
2021/04/27 05:09:06;;;;;;;20.55;8.98;;;;;;;3.65;80.58;99098.41;4925819;29;20048;-66
2021/04/27 05:11:58;;;;;;;14.80;8.50;;;;;;;3.73;78.96;99101.00;4925872;29;20677;-66
2021/04/27 05:14:33;;;;;;;13.50;9.02;;;;;;;4.03;81.98;99109.63;4907503;29;20122;-66
2021/04/27 05:17:00;;;;;;;11.45;8.23;;;;;;;4.03;80.22;99101.75;4889514;29;20527;-64
2021/04/27 05:19:27;;;;;;;13.20;10.02;;;;;;;3.96;81.45;99093.94;4891640;29;20040;-65
2021/04/27 05:21:53;;;;;;;12.05;8.30;;;;;;;3.93;79.88;99097.44;4942218;28;20538;-67
2021/04/27 05:24:21;;;;;;;12.55;9.32;;;;;;;3.90;83.10;99105.31;4989859;28;20076;-67
2021/04/27 05:26:48;;;;;;;13.45;9.80;;;;;;;3.82;81.65;99099.22;4955318;28;20212;-66
2021/04/27 05:29:15;;;;;;;16.33;10.15;;;;;;;3.72;80.25;99100.13;4973256;28;20056;-66
2021/04/27 05:31:41;;;;;;;15.52;10.45;;;;;;;3.88;81.83;99109.69;4990346;28;20046;-67
2021/04/27 05:34:07;;;;;;;13.75;10.20;;;;;;;3.92;81.76;99111.41;4986539;28;20043;-66
2021/04/27 05:36:33;;;;;;;16.40;10.88;;;;;;;3.72;80.93;99099.28;4988642;28;20046;-66
2021/04/27 05:39:00;;;;;;;15.18;11.38;;;;;;;4.02;81.63;99112.25;4990255;28;20441;-67
2021/04/27 05:41:26;;;;;;;17.77;12.02;;;;;;;4.04;80.51;99113.97;4988823;28;20046;-67
2021/04/27 05:43:52;;;;;;;16.52;11.38;;;;;;;3.80;79.94;99102.75;4970662;28;20391;-67
2021/04/27 05:46:18;;;;;;;13.75;10.15;;;;;;;3.57;80.58;99102.78;4988710;28;20196;-68
2021/04/27 05:48:44;;;;;;;16.83;12.00;;;;;;;3.57;80.08;99087.06;4972533;28;20398;-67
2021/04/27 05:51:10;;;;;;;16.27;12.18;;;;;;;3.82;81.91;99096.59;4969169;28;20125;-67
2021/04/27 05:53:36;;;;;;;20.05;12.75;;;;;;;3.64;80.45;99091.41;4971764;28;20586;-66
2021/04/27 05:56:02;;;;;;;20.27;14.38;;;;;;;3.45;81.99;99055.66;4989737;28;20125;-65
2021/04/27 05:58:28;;;;;;;20.65;12.10;;;;;;;3.27;80.44;99054.84;4989560;28;20050;-66
2021/04/27 06:00:54;;;;;;;18.88;11.98;;;;;;;3.39;80.72;99054.81;4969673;28;20485;-65
2021/04/27 06:03:20;;;;;;;16.88;11.98;;;;;;;3.30;80.75;99066.22;4988200;28;20101;-65
2021/04/27 06:05:46;;;;;;;19.85;13.15;;;;;;;3.31;81.14;99065.34;4988398;28;20049;-65
2021/04/27 06:08:12;;;;;;;24.15;12.57;;;;;;;3.31;80.11;99041.75;4986471;28;20046;-66
2021/04/27 06:10:37;;;;;;;25.13;12.80;;;;;;;3.42;79.78;99060.94;4988317;28;20049;-66
2021/04/27 06:13:03;;;;;;;23.98;14.40;;;;;;;3.44;81.04;99061.78;4989487;28;20448;-64
2021/04/27 06:15:29;;;;;;;21.77;12.77;;;;;;;3.48;80.27;99060.91;4972422;28;20073;-66
2021/04/27 06:17:55;;;;;;;17.05;11.25;;;;;;;3.43;79.01;99060.06;5002241;28;20074;-66
2021/04/27 06:20:21;;;;;;;18.05;12.18;;;;;;;3.38;79.87;99056.59;4989242;28;20456;-66
2021/04/27 06:22:48;;;;;;;25.13;11.95;;;;;;;3.47;80.11;99088.00;4970543;28;20042;-65
2021/04/27 06:25:14;;;;;;;16.60;10.15;;;;;;;3.55;79.12;99085.34;4988115;28;20069;-65
2021/04/27 06:27:40;;;;;;;15.95;10.50;;;;;;;3.38;79.50;99069.69;4986259;28;20384;-66
2021/04/27 06:30:09;;;;;;;16.95;10.57;;;;;;;3.51;79.02;99058.28;4987764;28;20043;-66
2021/04/27 06:32:35;;;;;;;21.00;11.15;;;;;;;3.40;79.00;99074.94;4988160;28;20096;-64
2021/04/27 06:35:03;;;;;;;20.35;11.50;;;;;;;3.53;78.83;99069.59;4987049;28;20065;-66
2021/04/27 06:37:28;;;;;;;16.55;11.68;;;;;;;3.55;78.65;99069.59;4987393;28;20056;-66
2021/04/27 06:39:54;;;;;;;16.60;11.75;;;;;;;3.41;79.13;99063.56;4988040;28;20129;-66
2021/04/27 06:42:20;;;;;;;16.90;11.48;;;;;;;3.30;79.95;99060.97;4989297;28;20076;-65
2021/04/27 06:44:46;;;;;;;15.68;10.98;;;;;;;3.41;79.57;99071.41;4985772;28;20046;-67
2021/04/27 06:47:12;;;;;;;15.60;10.50;;;;;;;3.46;79.72;99073.16;4986195;28;20137;-65
2021/04/27 06:49:39;;;;;;;11.98;9.68;;;;;;;3.32;79.09;99087.19;4988788;28;20054;-66
2021/04/27 06:52:08;;;;;;;14.52;9.35;;;;;;;3.20;79.38;99061.84;4985964;28;20046;-65
2021/04/27 06:54:35;;;;;;;15.80;10.40;;;;;;;3.49;79.87;99085.38;4988758;28;20263;-66
2021/04/27 06:57:02;;;;;;;14.70;10.43;;;;;;;3.62;79.37;99090.56;4986719;28;20046;-66
2021/04/27 06:59:34;;;;;;;16.20;9.90;;;;;;;3.58;79.76;99103.69;4988623;28;20058;-67
2021/04/27 07:02:02;;;;;;;15.03;10.30;;;;;;;3.52;79.12;99088.00;4988052;28;20161;-67
2021/04/27 07:04:29;;;;;;;13.00;9.93;;;;;;;3.59;79.61;99084.44;4986783;28;20071;-66
2021/04/27 07:06:55;;;;;;;13.13;10.25;;;;;;;3.53;78.67;99084.50;4987511;28;20081;-66
2021/04/27 07:09:21;;;;;;;19.17;11.95;;;;;;;3.44;79.63;99102.88;4986527;28;20050;-64
2021/04/27 07:11:48;;;;;;;18.95;12.02;;;;;;;3.78;78.77;99107.09;4987685;28;20050;-65
2021/04/27 07:14:14;;;;;;;12.88;10.15;;;;;;;3.65;78.49;99098.41;4987403;28;20073;-65
2021/04/27 07:16:41;;;;;;;14.93;10.55;;;;;;;3.46;78.50;99081.00;4985702;28;20046;-65
2021/04/27 07:19:09;;;;;;;16.08;10.70;;;;;;;3.50;78.57;99095.84;4986947;28;20057;-65
2021/04/27 07:21:37;;;;;;;13.43;10.02;;;;;;;3.63;78.75;99096.66;4987405;28;20594;-66
2021/04/27 07:24:04;;;;;;;18.25;10.57;;;;;;;3.49;79.21;99065.25;4969847;28;20097;-67
2021/04/27 07:26:30;;;;;;;13.52;9.60;;;;;;;3.32;78.96;99063.59;4986428;28;20493;-65
2021/04/27 07:28:55;;;;;;;12.85;9.77;;;;;;;3.33;80.08;99081.06;4986921;28;20127;-66
2021/04/27 07:31:21;;;;;;;15.25;10.88;;;;;;;3.28;80.55;99080.19;4986736;28;20525;-65
2021/04/27 07:33:47;;;;;;;17.23;11.48;;;;;;;3.20;79.94;99074.97;4986766;28;20122;-65
2021/04/27 07:36:13;;;;;;;14.75;11.60;;;;;;;3.36;79.28;99084.53;4970145;28;20046;-65
2021/04/27 07:38:40;;;;;;;17.95;11.32;;;;;;;3.33;79.78;99065.34;4986759;28;20109;-66
2021/04/27 07:41:06;;;;;;;14.23;10.45;;;;;;;3.26;79.89;99069.72;4970760;28;20526;-65
2021/04/27 07:43:33;;;;;;;15.85;10.88;;;;;;;3.42;79.26;99050.47;4967936;28;20062;-64
2021/04/27 07:45:59;;;;;;;13.75;9.63;;;;;;;3.37;79.18;99085.41;4987973;28;20113;-63
2021/04/27 07:48:27;;;;;;;10.93;8.52;;;;;;;3.55;79.05;99086.22;4986409;28;20124;-66
2021/04/27 07:50:53;;;;;;;11.13;8.23;;;;;;;3.65;79.43;99089.69;4986575;28;20046;-65
2021/04/27 07:53:19;;;;;;;9.35;6.60;;;;;;;3.53;78.79;99076.63;4984485;28;20073;-65
2021/04/27 07:55:45;;;;;;;12.82;7.10;;;;;;;3.50;78.58;99077.50;4986121;28;20046;-66
2021/04/27 07:58:11;;;;;;;8.00;4.93;;;;;;;3.51;79.11;99080.97;4987469;28;20129;-66
2021/04/27 08:00:37;;;;;;;4.60;3.50;;;;;;;3.37;78.45;99075.78;4985209;28;20050;-66
2021/04/27 08:03:03;;;;;;;4.47;3.33;;;;;;;3.20;80.25;99079.31;4986295;28;20042;-66
2021/04/27 08:05:30;;;;;;;4.75;3.42;;;;;;;3.08;79.71;99054.03;4970024;28;20410;-67
2021/04/27 08:07:56;;;;;;;4.63;3.22;;;;;;;3.19;80.42;99073.22;4985872;28;20134;-67
2021/04/27 08:10:22;;;;;;;5.90;3.42;;;;;;;3.32;80.02;99068.84;4985143;28;20072;-65
2021/04/27 08:12:49;;;;;;;5.75;3.22;;;;;;;3.08;80.45;99059.25;4986198;28;20082;-65
2021/04/27 08:15:19;;;;;;;6.53;2.72;;;;;;;3.18;80.46;99058.38;4987452;28;20050;-65
2021/04/27 08:17:45;;;;;;;4.38;2.60;;;;;;;3.07;81.06;99054.03;4968278;28;20046;-65
2021/04/27 08:20:14;;;;;;;4.85;3.22;;;;;;;3.11;81.69;99064.50;4986632;28;20066;-66
2021/04/27 08:22:42;;;;;;;7.90;3.72;;;;;;;3.04;81.34;99041.81;4984882;28;20476;-66
2021/04/27 08:25:09;;;;;;;6.47;3.53;;;;;;;2.87;81.56;99032.25;4968368;28;20074;-66
2021/04/27 08:27:35;;;;;;;5.95;2.92;;;;;;;2.94;81.57;99058.44;4969807;28;20112;-65
2021/04/27 08:30:03;;;;;;;6.82;4.10;;;;;;;3.01;82.47;99062.75;4985409;28;20065;-65
2021/04/27 08:32:29;;;;;;;5.78;3.78;;;;;;;3.07;81.24;99049.69;4987228;28;20050;-66
2021/04/27 08:34:55;;;;;;;5.05;3.22;;;;;;;3.08;81.65;99056.66;4985309;28;20057;-64
2021/04/27 08:37:21;;;;;;;5.43;3.33;;;;;;;3.25;82.00;99052.22;4984425;28;20439;-64
2021/04/27 08:39:47;;;;;;;4.35;3.47;;;;;;;3.16;80.83;99054.00;4987230;28;20580;-64
2021/04/27 08:42:14;;;;;;;7.72;4.22;;;;;;;3.23;80.73;99053.13;5000822;28;20182;-64
2021/04/27 08:44:40;;;;;;;7.82;4.68;;;;;;;3.20;81.56;99056.63;4986132;28;20359;-64
2021/04/27 08:47:09;;;;;;;9.32;5.30;;;;;;;3.05;81.44;99068.88;4985705;28;20043;-65
2021/04/27 08:49:35;;;;;;;9.07;6.95;;;;;;;2.95;80.81;99057.56;4986016;28;20038;-66
2021/04/27 08:52:03;;;;;;;9.25;7.30;;;;;;;3.13;80.99;99057.50;4983604;28;20049;-65
2021/04/27 08:54:29;;;;;;;12.77;8.10;;;;;;;3.31;80.59;99061.84;4985974;28;20141;-66
2021/04/27 08:56:56;;;;;;;10.07;7.95;;;;;;;3.27;81.08;99063.59;4985501;28;20054;-67
2021/04/27 08:59:22;;;;;;;8.48;6.15;;;;;;;3.33;79.90;99060.09;4967578;28;20363;-65
2021/04/27 09:01:49;;;;;;;8.60;6.55;;;;;;;3.56;79.92;99066.13;4986513;28;20478;-65
2021/04/27 09:04:37;;;;;;;7.50;5.07;;;;;;;3.46;79.56;99067.03;4985725;28;20563;-68
2021/04/27 09:07:07;;;;;;;7.10;4.20;;;;;;;3.40;79.65;99051.34;4982219;28;20081;-64
2021/04/27 09:09:47;;;;;;;5.93;4.25;;;;;;;3.46;78.71;99036.47;4986032;28;20491;-63
2021/04/27 09:12:18;;;;;;;6.38;4.15;;;;;;;3.60;79.52;99057.38;4983451;28;20495;-65
2021/04/27 09:14:44;;;;;;;5.28;3.28;;;;;;;3.56;78.86;99047.78;4985408;28;20498;-65
2021/04/27 09:17:12;;;;;;;3.65;2.78;;;;;;;3.52;79.62;99046.91;4986987;28;20104;-65
2021/04/27 09:19:40;;;;;;;4.32;3.38;;;;;;;3.47;79.23;99047.81;4984841;28;20085;-64
2021/04/27 09:22:11;;;;;;;3.75;3.00;;;;;;;3.50;78.86;99047.81;4983937;28;20561;-66
2021/04/27 09:24:51;;;;;;;4.40;3.10;;;;;;;3.50;79.45;99048.69;4984007;28;20114;-64
2021/04/27 09:27:33;;;;;;;4.00;2.85;;;;;;;3.50;79.10;99030.34;4983279;28;20133;-64
2021/04/27 09:30:14;;;;;;;4.05;3.08;;;;;;;3.73;78.99;99057.31;4980585;28;21016;-64
2021/04/27 09:32:51;;;;;;;4.15;2.90;;;;;;;3.53;79.09;99050.41;4963813;28;20081;-66
2021/04/27 09:35:35;;;;;;;5.97;3.03;;;;;;;3.69;78.74;99054.72;4984816;28;20042;-63
2021/04/27 09:38:20;;;;;;;10.70;3.42;;;;;;;3.71;80.05;99064.31;4967362;28;20046;-67
2021/04/27 09:41:05;;;;;;;5.60;2.92;;;;;;;3.82;78.63;99065.16;4985161;28;20056;-64
2021/04/27 09:43:34;;;;;;;11.25;3.05;;;;;;;3.52;78.24;99035.59;4967915;28;20038;-65
2021/04/27 09:46:03;;;;;;;4.72;3.47;;;;;;;3.61;79.01;99051.25;4985791;28;20118;-64
2021/04/27 09:48:44;;;;;;;4.60;3.10;;;;;;;3.53;79.91;99061.75;4967891;28;20425;-66
2021/04/27 09:51:12;;;;;;;4.28;3.00;;;;;;;3.72;80.40;99063.44;4985016;28;20042;-64
2021/04/27 09:53:42;;;;;;;5.45;3.50;;;;;;;3.70;79.43;99046.84;4984003;28;20049;-65
2021/04/27 09:56:09;;;;;;;6.07;3.40;;;;;;;4.00;79.25;99066.81;4983779;28;20158;-64
2021/04/27 09:58:36;;;;;;;3.50;2.90;;;;;;;3.78;78.83;99065.16;4985642;28;20109;-64
2021/04/27 10:01:05;;;;;;;7.50;3.67;;;;;;;3.71;78.83;99058.19;4985620;28;20131;-64
2021/04/27 10:03:32;;;;;;;5.22;4.40;;;;;;;3.64;79.23;99062.59;4983980;28;20157;-64
2021/04/27 10:05:58;;;;;;;6.05;3.90;;;;;;;3.77;78.66;99063.41;4984480;28;20101;-64
2021/04/27 10:08:25;;;;;;;6.35;4.57;;;;;;;3.78;78.75;99065.16;4986376;28;20060;-64
2021/04/27 10:10:55;;;;;;;10.57;4.93;;;;;;;3.78;78.80;99058.19;4971885;28;20100;-63
2021/04/27 10:13:21;;;;;;;6.75;4.75;;;;;;;3.80;79.18;99055.56;4971810;28;20064;-64
2021/04/27 10:15:50;;;;;;;5.80;4.25;;;;;;;3.41;79.38;99058.31;4988302;28;20473;-64
2021/04/27 10:18:16;;;;;;;11.60;5.47;;;;;;;3.50;79.80;99069.66;4989452;28;20108;-64
2021/04/27 10:20:42;;;;;;;12.80;5.40;;;;;;;3.65;78.85;99061.72;4986263;28;20396;-65
2021/04/27 10:23:11;;;;;;;7.95;5.05;;;;;;;4.00;78.22;99064.19;4988154;28;20122;-64
2021/04/27 10:25:38;;;;;;;8.23;4.93;;;;;;;3.86;78.58;99060.75;4973008;28;20117;-63
2021/04/27 10:28:09;;;;;;;8.07;5.72;;;;;;;3.84;79.27;99063.38;4988874;28;20042;-62
2021/04/27 10:30:42;;;;;;;8.70;5.40;;;;;;;3.99;77.63;99041.44;4990234;28;20045;-64
2021/04/27 10:33:28;;;;;;;12.25;5.78;;;;;;;4.17;78.13;99068.47;4989551;28;20053;-64
2021/04/27 10:36:08;;;;;;;7.57;5.00;;;;;;;4.00;78.25;99064.19;4989370;28;20085;-65
2021/04/27 10:38:46;;;;;;;7.25;5.32;;;;;;;4.12;78.09;99072.84;4986956;28;20046;-65
2021/04/27 10:41:16;;;;;;;7.88;4.65;;;;;;;4.08;78.00;99062.41;4988448;28;20524;-63
2021/04/27 10:43:51;;;;;;;6.22;4.88;;;;;;;4.03;77.12;99067.66;4989424;28;20047;-64
2021/04/27 10:46:17;;;;;;;6.32;5.07;;;;;;;4.31;77.02;99068.34;4987064;28;20038;-66
2021/04/27 10:48:45;;;;;;;8.75;4.85;;;;;;;3.86;77.34;99042.41;4971788;28;20104;-64
2021/04/27 10:51:23;;;;;;;7.43;5.57;;;;;;;3.94;77.84;99051.97;4989337;28;20046;-64
2021/04/27 10:54:17;;;;;;;10.20;6.10;;;;;;;4.07;77.82;99064.13;4985891;28;20062;-65
2021/04/27 10:56:44;;;;;;;9.18;6.25;;;;;;;3.92;77.17;99027.50;4973051;28;20507;-65
2021/04/27 10:59:15;;;;;;;11.57;6.40;;;;;;;4.19;76.99;99058.81;4987667;28;20450;-65
2021/04/27 11:01:44;;;;;;;10.13;6.18;;;;;;;4.23;76.86;99071.03;4988967;28;20068;-64
2021/04/27 11:04:44;;;;;;;12.93;6.15;;;;;;;4.31;76.77;99069.22;4989614;28;20049;-64
2021/04/27 11:07:10;;;;;;;7.95;5.28;;;;;;;4.54;75.98;99069.94;4951756;28;20719;-65
2021/04/27 11:09:36;;;;;;;12.35;5.90;;;;;;;4.26;76.83;99047.41;4967297;28;20580;-63
2021/04/27 11:12:36;;;;;;;7.47;5.80;;;;;;;4.47;77.14;99077.84;4966032;28;20050;-63
2021/04/27 11:15:06;;;;;;;13.57;6.18;;;;;;;4.38;76.36;99055.19;4967070;28;20526;-65
2021/04/27 11:17:38;;;;;;;8.82;5.75;;;;;;;4.21;76.54;99040.44;4951227;28;20054;-64
2021/04/27 11:20:07;;;;;;;9.45;6.88;;;;;;;4.52;76.33;99061.19;4967473;28;20046;-62
2021/04/27 11:22:36;;;;;;;9.15;6.57;;;;;;;4.43;77.17;99071.78;4952469;28;20046;-65
2021/04/27 11:25:32;;;;;;;11.15;5.20;;;;;;;4.44;76.62;99056.91;4937301;28;20486;-64
2021/04/27 11:27:58;;;;;;;8.93;5.65;;;;;;;4.29;77.23;99068.38;4965337;28;20093;-66
2021/04/27 11:30:34;;;;;;;13.48;5.15;;;;;;;4.40;77.16;99063.06;4966781;28;20070;-65
2021/04/27 11:33:06;;;;;;;5.53;4.75;;;;;;;4.07;77.33;99037.91;4967999;28;20134;-65
2021/04/27 11:35:39;;;;;;;;;;;;;;;4.13;78.45;99058.88;4969306;28;20050;-65
2021/04/27 11:38:06;;;;;;;8.43;4.75;;;;;;;4.12;78.44;99062.34;4968757;28;20418;-64
2021/04/27 11:40:38;;;;;;;10.25;4.78;;;;;;;4.40;77.83;99060.44;4953336;28;20174;-63
2021/04/27 11:43:11;;;;;;;7.47;4.85;;;;;;;4.39;77.72;99069.16;4973037;28;20089;-64
2021/04/27 11:45:46;;;;;;;8.38;4.85;;;;;;;4.33;78.10;99062.25;4989147;28;20073;-64
2021/04/27 11:48:20;;;;;;;8.65;4.93;;;;;;;4.49;77.13;99066.50;4991391;28;20077;-66
2021/04/27 11:50:48;;;;;;;5.85;4.80;;;;;;;4.49;77.17;99063.00;4990335;28;20046;-64
2021/04/27 11:53:16;;;;;;;10.05;5.50;;;;;;;4.67;77.08;99055.84;4970049;28;20081;-62